sensor_id;sensor_type;location;lat;lon;timestamp;temperature;humidity
12853;DHT22;6495;51.808;7.478;2023-04-07T00:01:05;7.90;99.90
12853;DHT22;6495;51.808;7.478;2023-04-07T00:03:53;7.90;99.90
12853;DHT22;6495;51.808;7.478;2023-04-07T00:06:43;7.90;99.90
12853;DHT22;6495;51.808;7.478;2023-04-07T00:09:32;7.90;99.90
12853;DHT22;6495;51.808;7.478;2023-04-07T00:12:21;7.90;99.90
12853;DHT22;6495;51.808;7.478;2023-04-07T00:15:11;7.90;99.90
12853;DHT22;6495;51.808;7.478;2023-04-07T00:18:00;7.90;99.90
12853;DHT22;6495;51.808;7.478;2023-04-07T00:20:49;7.90;99.90
12853;DHT22;6495;51.808;7.478;2023-04-07T00:23:40;7.90;99.90
12853;DHT22;6495;51.808;7.478;2023-04-07T00:26:29;7.90;99.90
12853;DHT22;6495;51.808;7.478;2023-04-07T00:29:19;7.90;99.90
12853;DHT22;6495;51.808;7.478;2023-04-07T00:32:10;7.90;99.90
12853;DHT22;6495;51.808;7.478;2023-04-07T00:34:59;7.90;99.90
12853;DHT22;6495;51.808;7.478;2023-04-07T00:37:48;7.90;99.90
12853;DHT22;6495;51.808;7.478;2023-04-07T00:40:37;7.90;99.90
12853;DHT22;6495;51.808;7.478;2023-04-07T00:43:28;7.90;99.90
12853;DHT22;6495;51.808;7.478;2023-04-07T00:46:21;7.90;99.90
12853;DHT22;6495;51.808;7.478;2023-04-07T00:49:12;7.90;99.90
12853;DHT22;6495;51.808;7.478;2023-04-07T00:52:01;7.90;99.90
12853;DHT22;6495;51.808;7.478;2023-04-07T00:54:49;7.90;99.90
12853;DHT22;6495;51.808;7.478;2023-04-07T00:57:38;7.90;99.90
12853;DHT22;6495;51.808;7.478;2023-04-07T01:00:28;7.90;99.90
12853;DHT22;6495;51.808;7.478;2023-04-07T01:03:28;7.90;99.90
12853;DHT22;6495;51.808;7.478;2023-04-07T01:06:23;7.90;99.90
12853;DHT22;6495;51.808;7.478;2023-04-07T01:09:19;7.90;99.90
12853;DHT22;6495;51.808;7.478;2023-04-07T01:12:16;7.90;99.90
12853;DHT22;6495;51.808;7.478;2023-04-07T01:15:12;7.90;99.90
12853;DHT22;6495;51.808;7.478;2023-04-07T01:18:09;7.90;99.90
12853;DHT22;6495;51.808;7.478;2023-04-07T01:21:06;8.00;99.90
12853;DHT22;6495;51.808;7.478;2023-04-07T01:24:10;8.00;99.90
12853;DHT22;6495;51.808;7.478;2023-04-07T01:27:30;8.00;99.90
12853;DHT22;6495;51.808;7.478;2023-04-07T01:30:28;8.00;99.90
12853;DHT22;6495;51.808;7.478;2023-04-07T01:33:19;7.90;99.90
12853;DHT22;6495;51.808;7.478;2023-04-07T01:36:09;8.00;99.90
12853;DHT22;6495;51.808;7.478;2023-04-07T01:38:59;8.00;99.90
12853;DHT22;6495;51.808;7.478;2023-04-07T01:41:49;8.00;99.90
12853;DHT22;6495;51.808;7.478;2023-04-07T01:44:39;8.00;99.90
12853;DHT22;6495;51.808;7.478;2023-04-07T01:47:33;8.00;99.90
12853;DHT22;6495;51.808;7.478;2023-04-07T01:50:25;8.00;99.90
12853;DHT22;6495;51.808;7.478;2023-04-07T01:53:16;8.00;99.90
12853;DHT22;6495;51.808;7.478;2023-04-07T01:56:06;8.00;99.90
12853;DHT22;6495;51.808;7.478;2023-04-07T01:58:56;8.00;99.90
12853;DHT22;6495;51.808;7.478;2023-04-07T02:01:45;8.00;99.90
12853;DHT22;6495;51.808;7.478;2023-04-07T02:04:44;8.00;99.90
12853;DHT22;6495;51.808;7.478;2023-04-07T02:07:44;8.00;99.90
12853;DHT22;6495;51.808;7.478;2023-04-07T02:10:38;8.00;99.90
12853;DHT22;6495;51.808;7.478;2023-04-07T02:13:28;8.00;99.90
12853;DHT22;6495;51.808;7.478;2023-04-07T02:16:19;8.00;99.90
12853;DHT22;6495;51.808;7.478;2023-04-07T02:19:15;8.10;99.90
12853;DHT22;6495;51.808;7.478;2023-04-07T02:22:05;8.00;99.90
12853;DHT22;6495;51.808;7.478;2023-04-07T02:24:55;8.00;99.90
12853;DHT22;6495;51.808;7.478;2023-04-07T02:27:46;8.10;99.90
12853;DHT22;6495;51.808;7.478;2023-04-07T02:30:35;8.10;99.90
12853;DHT22;6495;51.808;7.478;2023-04-07T02:33:25;8.10;99.90
12853;DHT22;6495;51.808;7.478;2023-04-07T02:36:14;8.10;99.90
12853;DHT22;6495;51.808;7.478;2023-04-07T02:39:04;8.10;99.90
12853;DHT22;6495;51.808;7.478;2023-04-07T02:41:53;8.00;99.90
12853;DHT22;6495;51.808;7.478;2023-04-07T02:44:42;8.10;99.90
12853;DHT22;6495;51.808;7.478;2023-04-07T02:47:31;8.10;99.90
12853;DHT22;6495;51.808;7.478;2023-04-07T02:50:20;8.10;99.90
12853;DHT22;6495;51.808;7.478;2023-04-07T02:53:09;8.10;99.90
12853;DHT22;6495;51.808;7.478;2023-04-07T02:56:01;8.10;99.90
12853;DHT22;6495;51.808;7.478;2023-04-07T02:58:52;8.10;99.90
12853;DHT22;6495;51.808;7.478;2023-04-07T03:01:41;8.10;99.90
12853;DHT22;6495;51.808;7.478;2023-04-07T03:04:30;8.10;99.90
12853;DHT22;6495;51.808;7.478;2023-04-07T03:07:19;8.10;99.90
12853;DHT22;6495;51.808;7.478;2023-04-07T03:10:10;8.10;99.90
12853;DHT22;6495;51.808;7.478;2023-04-07T03:13:00;8.10;99.90
12853;DHT22;6495;51.808;7.478;2023-04-07T03:15:49;8.10;99.90
12853;DHT22;6495;51.808;7.478;2023-04-07T03:18:39;8.10;99.90
12853;DHT22;6495;51.808;7.478;2023-04-07T03:21:28;8.10;99.90
12853;DHT22;6495;51.808;7.478;2023-04-07T03:24:21;8.10;99.90
12853;DHT22;6495;51.808;7.478;2023-04-07T03:27:10;8.10;99.90
12853;DHT22;6495;51.808;7.478;2023-04-07T03:30:06;8.10;99.90
12853;DHT22;6495;51.808;7.478;2023-04-07T03:32:55;8.10;99.90
12853;DHT22;6495;51.808;7.478;2023-04-07T03:35:44;8.10;99.90
12853;DHT22;6495;51.808;7.478;2023-04-07T03:38:34;8.10;99.90
12853;DHT22;6495;51.808;7.478;2023-04-07T03:41:30;8.10;99.90
12853;DHT22;6495;51.808;7.478;2023-04-07T03:44:19;8.10;99.90
12853;DHT22;6495;51.808;7.478;2023-04-07T03:47:09;8.10;99.90
12853;DHT22;6495;51.808;7.478;2023-04-07T03:49:58;8.20;99.90
12853;DHT22;6495;51.808;7.478;2023-04-07T03:52:50;8.10;99.90
12853;DHT22;6495;51.808;7.478;2023-04-07T03:55:44;8.20;99.90
12853;DHT22;6495;51.808;7.478;2023-04-07T03:58:42;8.20;99.90
12853;DHT22;6495;51.808;7.478;2023-04-07T04:01:36;8.20;99.90
12853;DHT22;6495;51.808;7.478;2023-04-07T04:04:31;8.20;99.90
12853;DHT22;6495;51.808;7.478;2023-04-07T04:07:20;8.20;99.90
12853;DHT22;6495;51.808;7.478;2023-04-07T04:10:12;8.20;99.90
12853;DHT22;6495;51.808;7.478;2023-04-07T04:13:06;8.20;99.90
12853;DHT22;6495;51.808;7.478;2023-04-07T04:15:55;8.20;99.90
12853;DHT22;6495;51.808;7.478;2023-04-07T04:18:46;8.20;99.90
12853;DHT22;6495;51.808;7.478;2023-04-07T04:21:37;8.20;99.90
12853;DHT22;6495;51.808;7.478;2023-04-07T04:24:27;8.20;99.90
12853;DHT22;6495;51.808;7.478;2023-04-07T04:27:20;8.20;99.90
12853;DHT22;6495;51.808;7.478;2023-04-07T04:30:14;8.20;99.90
12853;DHT22;6495;51.808;7.478;2023-04-07T04:33:13;8.20;99.90
12853;DHT22;6495;51.808;7.478;2023-04-07T04:36:22;8.20;99.90
12853;DHT22;6495;51.808;7.478;2023-04-07T04:39:17;8.20;99.90
12853;DHT22;6495;51.808;7.478;2023-04-07T04:42:06;8.20;99.90
12853;DHT22;6495;51.808;7.478;2023-04-07T04:44:55;8.20;99.90
12853;DHT22;6495;51.808;7.478;2023-04-07T04:47:45;8.20;99.90
12853;DHT22;6495;51.808;7.478;2023-04-07T04:50:35;8.20;99.90
12853;DHT22;6495;51.808;7.478;2023-04-07T04:53:29;8.20;99.90
12853;DHT22;6495;51.808;7.478;2023-04-07T04:56:21;8.20;99.90
12853;DHT22;6495;51.808;7.478;2023-04-07T04:59:10;8.20;99.90
12853;DHT22;6495;51.808;7.478;2023-04-07T05:02:09;8.20;99.90
12853;DHT22;6495;51.808;7.478;2023-04-07T05:04:59;8.20;99.90
12853;DHT22;6495;51.808;7.478;2023-04-07T05:07:48;8.20;99.90
12853;DHT22;6495;51.808;7.478;2023-04-07T05:10:38;8.20;99.90
12853;DHT22;6495;51.808;7.478;2023-04-07T05:13:33;8.20;99.90
12853;DHT22;6495;51.808;7.478;2023-04-07T05:16:23;8.20;99.90
12853;DHT22;6495;51.808;7.478;2023-04-07T05:19:12;8.20;99.90
12853;DHT22;6495;51.808;7.478;2023-04-07T05:22:04;8.20;99.90
12853;DHT22;6495;51.808;7.478;2023-04-07T05:25:00;8.20;99.90
12853;DHT22;6495;51.808;7.478;2023-04-07T05:27:49;8.20;99.90
12853;DHT22;6495;51.808;7.478;2023-04-07T05:30:39;8.20;99.90
12853;DHT22;6495;51.808;7.478;2023-04-07T05:33:28;8.20;99.90
12853;DHT22;6495;51.808;7.478;2023-04-07T05:36:16;8.20;99.90
12853;DHT22;6495;51.808;7.478;2023-04-07T05:39:06;8.20;99.90
12853;DHT22;6495;51.808;7.478;2023-04-07T05:42:00;8.20;99.90
12853;DHT22;6495;51.808;7.478;2023-04-07T05:45:35;8.20;99.90
12853;DHT22;6495;51.808;7.478;2023-04-07T05:48:50;8.20;99.90
12853;DHT22;6495;51.808;7.478;2023-04-07T05:52:09;8.20;99.90
12853;DHT22;6495;51.808;7.478;2023-04-07T05:55:19;8.20;99.90
12853;DHT22;6495;51.808;7.478;2023-04-07T05:58:20;8.20;99.90
12853;DHT22;6495;51.808;7.478;2023-04-07T06:01:24;8.20;99.90
12853;DHT22;6495;51.808;7.478;2023-04-07T06:04:31;8.20;99.90
12853;DHT22;6495;51.808;7.478;2023-04-07T06:07:24;8.20;99.90
12853;DHT22;6495;51.808;7.478;2023-04-07T06:10:19;8.20;99.90
12853;DHT22;6495;51.808;7.478;2023-04-07T06:13:21;8.20;99.90
12853;DHT22;6495;51.808;7.478;2023-04-07T06:16:22;8.20;99.90
12853;DHT22;6495;51.808;7.478;2023-04-07T06:19:11;8.20;99.90
12853;DHT22;6495;51.808;7.478;2023-04-07T06:22:06;8.20;99.90
12853;DHT22;6495;51.808;7.478;2023-04-07T06:25:03;8.20;99.90
12853;DHT22;6495;51.808;7.478;2023-04-07T06:27:53;8.20;99.90
12853;DHT22;6495;51.808;7.478;2023-04-07T06:30:42;8.20;99.90
12853;DHT22;6495;51.808;7.478;2023-04-07T06:33:33;8.20;99.90
12853;DHT22;6495;51.808;7.478;2023-04-07T06:36:22;8.20;99.90
12853;DHT22;6495;51.808;7.478;2023-04-07T06:39:13;8.20;99.90
12853;DHT22;6495;51.808;7.478;2023-04-07T06:42:03;8.20;99.90
12853;DHT22;6495;51.808;7.478;2023-04-07T06:44:57;8.20;99.90
12853;DHT22;6495;51.808;7.478;2023-04-07T06:47:45;8.20;99.90
12853;DHT22;6495;51.808;7.478;2023-04-07T06:50:34;8.20;99.90
12853;DHT22;6495;51.808;7.478;2023-04-07T06:53:38;8.20;99.90
12853;DHT22;6495;51.808;7.478;2023-04-07T06:56:55;8.20;99.90
12853;DHT22;6495;51.808;7.478;2023-04-07T07:00:00;8.20;99.90
12853;DHT22;6495;51.808;7.478;2023-04-07T07:02:58;8.20;99.90
12853;DHT22;6495;51.808;7.478;2023-04-07T07:06:04;8.20;99.90
12853;DHT22;6495;51.808;7.478;2023-04-07T07:09:22;8.30;99.90
12853;DHT22;6495;51.808;7.478;2023-04-07T07:12:44;8.30;99.90
12853;DHT22;6495;51.808;7.478;2023-04-07T07:15:43;8.30;99.90
12853;DHT22;6495;51.808;7.478;2023-04-07T07:18:39;8.30;99.90
12853;DHT22;6495;51.808;7.478;2023-04-07T07:21:39;8.30;99.90
12853;DHT22;6495;51.808;7.478;2023-04-07T07:24:46;8.30;99.90
12853;DHT22;6495;51.808;7.478;2023-04-07T07:27:52;8.30;99.90
12853;DHT22;6495;51.808;7.478;2023-04-07T07:30:58;8.30;99.90
12853;DHT22;6495;51.808;7.478;2023-04-07T07:33:46;8.30;99.90
12853;DHT22;6495;51.808;7.478;2023-04-07T07:36:37;8.40;99.90
12853;DHT22;6495;51.808;7.478;2023-04-07T07:39:26;8.40;99.90
12853;DHT22;6495;51.808;7.478;2023-04-07T07:42:15;8.40;99.90
12853;DHT22;6495;51.808;7.478;2023-04-07T07:45:06;8.40;99.90
12853;DHT22;6495;51.808;7.478;2023-04-07T07:47:55;8.40;99.90
12853;DHT22;6495;51.808;7.478;2023-04-07T07:50:44;8.40;99.90
12853;DHT22;6495;51.808;7.478;2023-04-07T07:53:33;8.50;99.90
12853;DHT22;6495;51.808;7.478;2023-04-07T07:56:22;8.50;99.90
12853;DHT22;6495;51.808;7.478;2023-04-07T07:59:10;8.50;99.90
12853;DHT22;6495;51.808;7.478;2023-04-07T08:02:00;8.50;99.90
12853;DHT22;6495;51.808;7.478;2023-04-07T08:04:49;8.50;99.90
12853;DHT22;6495;51.808;7.478;2023-04-07T08:07:37;8.50;99.90
12853;DHT22;6495;51.808;7.478;2023-04-07T08:10:26;8.60;99.90
12853;DHT22;6495;51.808;7.478;2023-04-07T08:13:14;8.60;99.90
12853;DHT22;6495;51.808;7.478;2023-04-07T08:16:19;8.60;99.90
12853;DHT22;6495;51.808;7.478;2023-04-07T08:19:18;8.60;99.90
12853;DHT22;6495;51.808;7.478;2023-04-07T08:22:13;8.70;99.90
12853;DHT22;6495;51.808;7.478;2023-04-07T08:25:01;8.70;99.90
12853;DHT22;6495;51.808;7.478;2023-04-07T08:27:56;8.70;99.90
12853;DHT22;6495;51.808;7.478;2023-04-07T08:34:40;8.80;99.90
12853;DHT22;6495;51.808;7.478;2023-04-07T08:37:29;8.80;99.90
12853;DHT22;6495;51.808;7.478;2023-04-07T08:40:18;8.80;99.90
12853;DHT22;6495;51.808;7.478;2023-04-07T08:43:08;8.80;99.90
12853;DHT22;6495;51.808;7.478;2023-04-07T08:45:57;8.80;99.90
12853;DHT22;6495;51.808;7.478;2023-04-07T08:48:50;8.90;99.90
12853;DHT22;6495;51.808;7.478;2023-04-07T08:51:44;8.90;99.90
12853;DHT22;6495;51.808;7.478;2023-04-07T08:54:34;8.90;99.90
12853;DHT22;6495;51.808;7.478;2023-04-07T08:57:23;8.90;99.90
12853;DHT22;6495;51.808;7.478;2023-04-07T09:00:12;8.90;99.90
12853;DHT22;6495;51.808;7.478;2023-04-07T09:03:02;8.90;99.90
12853;DHT22;6495;51.808;7.478;2023-04-07T09:05:51;9.00;99.90
12853;DHT22;6495;51.808;7.478;2023-04-07T09:08:43;9.00;99.90
12853;DHT22;6495;51.808;7.478;2023-04-07T09:11:34;9.00;99.90
12853;DHT22;6495;51.808;7.478;2023-04-07T09:14:27;9.00;99.90
12853;DHT22;6495;51.808;7.478;2023-04-07T09:17:15;9.00;99.90
12853;DHT22;6495;51.808;7.478;2023-04-07T09:20:05;9.00;99.90
12853;DHT22;6495;51.808;7.478;2023-04-07T09:22:54;9.10;99.90
12853;DHT22;6495;51.808;7.478;2023-04-07T09:25:59;9.10;99.90
12853;DHT22;6495;51.808;7.478;2023-04-07T09:28:52;9.10;99.90
12853;DHT22;6495;51.808;7.478;2023-04-07T09:31:59;9.10;99.90
12853;DHT22;6495;51.808;7.478;2023-04-07T09:34:57;9.10;99.90
12853;DHT22;6495;51.808;7.478;2023-04-07T09:38:00;9.10;99.90
12853;DHT22;6495;51.808;7.478;2023-04-07T09:40:50;9.20;99.90
12853;DHT22;6495;51.808;7.478;2023-04-07T09:43:56;9.10;99.90
12853;DHT22;6495;51.808;7.478;2023-04-07T09:46:48;9.20;99.90
12853;DHT22;6495;51.808;7.478;2023-04-07T09:49:48;9.20;99.90
12853;DHT22;6495;51.808;7.478;2023-04-07T09:52:50;9.20;99.90
12853;DHT22;6495;51.808;7.478;2023-04-07T09:55:39;9.20;99.90
12853;DHT22;6495;51.808;7.478;2023-04-07T09:58:29;9.30;99.90
12853;DHT22;6495;51.808;7.478;2023-04-07T10:01:20;9.30;99.90
12853;DHT22;6495;51.808;7.478;2023-04-07T10:04:09;9.30;99.90
12853;DHT22;6495;51.808;7.478;2023-04-07T10:06:59;9.30;99.90
12853;DHT22;6495;51.808;7.478;2023-04-07T10:09:52;9.40;99.90
12853;DHT22;6495;51.808;7.478;2023-04-07T10:12:41;9.40;99.90
12853;DHT22;6495;51.808;7.478;2023-04-07T10:15:30;9.30;99.90
12853;DHT22;6495;51.808;7.478;2023-04-07T10:18:22;9.40;99.90
12853;DHT22;6495;51.808;7.478;2023-04-07T10:21:15;9.40;99.90
12853;DHT22;6495;51.808;7.478;2023-04-07T10:24:10;9.40;99.90
12853;DHT22;6495;51.808;7.478;2023-04-07T10:27:12;9.40;99.90
12853;DHT22;6495;51.808;7.478;2023-04-07T10:30:06;9.40;99.90
12853;DHT22;6495;51.808;7.478;2023-04-07T10:33:04;9.40;99.90
12853;DHT22;6495;51.808;7.478;2023-04-07T10:36:04;9.50;99.90
12853;DHT22;6495;51.808;7.478;2023-04-07T10:39:20;9.40;99.90
12853;DHT22;6495;51.808;7.478;2023-04-07T10:42:43;9.50;99.90
12853;DHT22;6495;51.808;7.478;2023-04-07T10:45:53;9.40;99.90
12853;DHT22;6495;51.808;7.478;2023-04-07T10:49:07;9.50;99.90
12853;DHT22;6495;51.808;7.478;2023-04-07T10:52:21;9.50;99.90
12853;DHT22;6495;51.808;7.478;2023-04-07T10:55:31;9.50;99.90
12853;DHT22;6495;51.808;7.478;2023-04-07T10:58:22;9.50;99.90
12853;DHT22;6495;51.808;7.478;2023-04-07T11:01:16;9.50;99.90
12853;DHT22;6495;51.808;7.478;2023-04-07T11:04:32;9.50;99.90
12853;DHT22;6495;51.808;7.478;2023-04-07T11:07:48;9.50;99.90
12853;DHT22;6495;51.808;7.478;2023-04-07T11:16:48;9.40;99.90
12853;DHT22;6495;51.808;7.478;2023-04-07T11:19:50;9.40;99.90
12853;DHT22;6495;51.808;7.478;2023-04-07T11:22:59;9.40;99.90
12853;DHT22;6495;51.808;7.478;2023-04-07T11:25:50;9.50;99.90
12853;DHT22;6495;51.808;7.478;2023-04-07T11:28:44;9.40;99.90
12853;DHT22;6495;51.808;7.478;2023-04-07T11:31:34;9.40;99.90
12853;DHT22;6495;51.808;7.478;2023-04-07T11:34:28;9.40;99.90
12853;DHT22;6495;51.808;7.478;2023-04-07T11:37:18;9.40;99.90
12853;DHT22;6495;51.808;7.478;2023-04-07T11:40:10;9.50;99.90
12853;DHT22;6495;51.808;7.478;2023-04-07T11:43:00;9.40;99.90
12853;DHT22;6495;51.808;7.478;2023-04-07T11:46:06;9.40;99.90
12853;DHT22;6495;51.808;7.478;2023-04-07T11:49:07;9.50;99.90
12853;DHT22;6495;51.808;7.478;2023-04-07T11:51:59;9.40;99.90
12853;DHT22;6495;51.808;7.478;2023-04-07T11:55:24;9.40;99.90
12853;DHT22;6495;51.808;7.478;2023-04-07T11:58:37;9.50;99.90
12853;DHT22;6495;51.808;7.478;2023-04-07T12:01:40;9.50;99.90
12853;DHT22;6495;51.808;7.478;2023-04-07T12:04:29;9.50;99.90
12853;DHT22;6495;51.808;7.478;2023-04-07T12:07:18;9.50;99.90
12853;DHT22;6495;51.808;7.478;2023-04-07T12:10:23;9.50;99.90
12853;DHT22;6495;51.808;7.478;2023-04-07T12:13:13;9.50;99.90
12853;DHT22;6495;51.808;7.478;2023-04-07T12:16:01;9.50;99.90
12853;DHT22;6495;51.808;7.478;2023-04-07T12:23:04;9.50;99.90
12853;DHT22;6495;51.808;7.478;2023-04-07T12:25:54;9.50;99.90
12853;DHT22;6495;51.808;7.478;2023-04-07T12:28:42;9.50;99.90
12853;DHT22;6495;51.808;7.478;2023-04-07T12:31:31;9.50;99.90
12853;DHT22;6495;51.808;7.478;2023-04-07T12:34:20;9.50;99.90
12853;DHT22;6495;51.808;7.478;2023-04-07T12:37:09;9.50;99.90
12853;DHT22;6495;51.808;7.478;2023-04-07T12:39:57;9.60;99.90
12853;DHT22;6495;51.808;7.478;2023-04-07T12:42:50;9.60;99.90
12853;DHT22;6495;51.808;7.478;2023-04-07T12:45:39;9.60;99.90
12853;DHT22;6495;51.808;7.478;2023-04-07T12:48:27;9.60;99.90
12853;DHT22;6495;51.808;7.478;2023-04-07T12:51:16;9.60;99.90
12853;DHT22;6495;51.808;7.478;2023-04-07T12:54:04;9.60;99.90
12853;DHT22;6495;51.808;7.478;2023-04-07T12:56:53;9.70;99.90
12853;DHT22;6495;51.808;7.478;2023-04-07T12:59:44;9.70;99.90
12853;DHT22;6495;51.808;7.478;2023-04-07T13:02:33;9.70;99.90
12853;DHT22;6495;51.808;7.478;2023-04-07T13:05:23;9.70;99.90
12853;DHT22;6495;51.808;7.478;2023-04-07T13:08:11;9.80;99.90
12853;DHT22;6495;51.808;7.478;2023-04-07T13:11:00;9.80;99.90
12853;DHT22;6495;51.808;7.478;2023-04-07T13:13:51;9.80;99.90
12853;DHT22;6495;51.808;7.478;2023-04-07T13:16:44;9.90;99.90
12853;DHT22;6495;51.808;7.478;2023-04-07T13:19:33;9.90;99.90
12853;DHT22;6495;51.808;7.478;2023-04-07T13:22:23;9.90;99.90
12853;DHT22;6495;51.808;7.478;2023-04-07T13:25:12;9.90;99.90
12853;DHT22;6495;51.808;7.478;2023-04-07T13:28:03;9.90;99.90
12853;DHT22;6495;51.808;7.478;2023-04-07T13:30:52;9.90;99.90
12853;DHT22;6495;51.808;7.478;2023-04-07T13:33:43;9.90;99.90
12853;DHT22;6495;51.808;7.478;2023-04-07T13:36:32;9.90;99.90
12853;DHT22;6495;51.808;7.478;2023-04-07T13:39:21;9.90;99.90
12853;DHT22;6495;51.808;7.478;2023-04-07T13:42:12;9.90;99.90
12853;DHT22;6495;51.808;7.478;2023-04-07T13:45:03;9.90;99.90
12853;DHT22;6495;51.808;7.478;2023-04-07T13:47:52;9.90;99.90
12853;DHT22;6495;51.808;7.478;2023-04-07T13:50:44;9.90;99.90
12853;DHT22;6495;51.808;7.478;2023-04-07T13:53:32;10.00;99.90
12853;DHT22;6495;51.808;7.478;2023-04-07T13:56:21;10.00;99.90
12853;DHT22;6495;51.808;7.478;2023-04-07T13:59:10;10.00;99.90
12853;DHT22;6495;51.808;7.478;2023-04-07T14:01:59;10.00;99.90
12853;DHT22;6495;51.808;7.478;2023-04-07T14:04:47;10.00;99.90
12853;DHT22;6495;51.808;7.478;2023-04-07T14:07:37;10.00;99.90
12853;DHT22;6495;51.808;7.478;2023-04-07T14:10:26;10.10;99.90
12853;DHT22;6495;51.808;7.478;2023-04-07T14:13:15;10.10;99.90
12853;DHT22;6495;51.808;7.478;2023-04-07T14:16:04;10.10;99.90
12853;DHT22;6495;51.808;7.478;2023-04-07T14:18:54;10.20;99.90
12853;DHT22;6495;51.808;7.478;2023-04-07T14:21:43;10.20;99.90
12853;DHT22;6495;51.808;7.478;2023-04-07T14:24:33;10.20;99.90
12853;DHT22;6495;51.808;7.478;2023-04-07T14:27:21;10.20;99.90
12853;DHT22;6495;51.808;7.478;2023-04-07T14:30:11;10.20;99.90
12853;DHT22;6495;51.808;7.478;2023-04-07T14:32:59;10.30;99.90
12853;DHT22;6495;51.808;7.478;2023-04-07T14:35:51;10.30;99.90
12853;DHT22;6495;51.808;7.478;2023-04-07T14:38:39;10.30;99.90
12853;DHT22;6495;51.808;7.478;2023-04-07T14:41:29;10.30;99.90
12853;DHT22;6495;51.808;7.478;2023-04-07T14:44:18;10.40;99.90
12853;DHT22;6495;51.808;7.478;2023-04-07T14:47:07;10.40;99.90
12853;DHT22;6495;51.808;7.478;2023-04-07T14:49:57;10.40;99.90
12853;DHT22;6495;51.808;7.478;2023-04-07T14:52:46;10.40;99.90
12853;DHT22;6495;51.808;7.478;2023-04-07T14:55:35;10.40;99.90
12853;DHT22;6495;51.808;7.478;2023-04-07T14:58:25;10.40;99.90
12853;DHT22;6495;51.808;7.478;2023-04-07T15:01:13;10.50;99.90
12853;DHT22;6495;51.808;7.478;2023-04-07T15:04:02;10.50;99.90
12853;DHT22;6495;51.808;7.478;2023-04-07T15:06:51;10.50;99.90
12853;DHT22;6495;51.808;7.478;2023-04-07T15:09:42;10.50;99.90
12853;DHT22;6495;51.808;7.478;2023-04-07T15:12:31;10.60;99.90
12853;DHT22;6495;51.808;7.478;2023-04-07T15:15:21;10.60;99.90
12853;DHT22;6495;51.808;7.478;2023-04-07T15:18:11;10.60;99.90
12853;DHT22;6495;51.808;7.478;2023-04-07T15:21:00;10.60;99.90
12853;DHT22;6495;51.808;7.478;2023-04-07T15:23:48;10.60;99.90
12853;DHT22;6495;51.808;7.478;2023-04-07T15:26:37;10.60;99.90
12853;DHT22;6495;51.808;7.478;2023-04-07T15:29:26;10.60;99.90
12853;DHT22;6495;51.808;7.478;2023-04-07T15:32:16;10.60;99.90
12853;DHT22;6495;51.808;7.478;2023-04-07T15:35:05;10.60;99.90
12853;DHT22;6495;51.808;7.478;2023-04-07T15:37:54;10.60;99.90
12853;DHT22;6495;51.808;7.478;2023-04-07T15:40:42;10.70;99.90
12853;DHT22;6495;51.808;7.478;2023-04-07T15:43:31;10.70;99.90
12853;DHT22;6495;51.808;7.478;2023-04-07T15:46:20;10.70;99.90
12853;DHT22;6495;51.808;7.478;2023-04-07T15:49:10;10.70;99.90
12853;DHT22;6495;51.808;7.478;2023-04-07T15:52:01;10.80;99.90
12853;DHT22;6495;51.808;7.478;2023-04-07T15:54:51;10.80;99.90
12853;DHT22;6495;51.808;7.478;2023-04-07T15:57:39;10.80;99.90
12853;DHT22;6495;51.808;7.478;2023-04-07T16:00:29;10.80;99.90
12853;DHT22;6495;51.808;7.478;2023-04-07T16:03:20;10.80;99.90
12853;DHT22;6495;51.808;7.478;2023-04-07T16:06:10;10.80;99.90
12853;DHT22;6495;51.808;7.478;2023-04-07T16:08:59;10.90;99.90
12853;DHT22;6495;51.808;7.478;2023-04-07T16:11:47;10.90;99.90
12853;DHT22;6495;51.808;7.478;2023-04-07T16:14:36;10.90;99.90
12853;DHT22;6495;51.808;7.478;2023-04-07T16:17:24;11.00;99.90
12853;DHT22;6495;51.808;7.478;2023-04-07T16:20:24;11.00;99.90
12853;DHT22;6495;51.808;7.478;2023-04-07T16:23:14;11.00;99.90
12853;DHT22;6495;51.808;7.478;2023-04-07T16:26:02;11.00;99.90
12853;DHT22;6495;51.808;7.478;2023-04-07T16:28:51;11.00;99.90
12853;DHT22;6495;51.808;7.478;2023-04-07T16:31:39;11.00;99.90
12853;DHT22;6495;51.808;7.478;2023-04-07T16:34:30;11.00;99.90
12853;DHT22;6495;51.808;7.478;2023-04-07T16:37:18;11.00;99.90
12853;DHT22;6495;51.808;7.478;2023-04-07T16:40:09;11.10;99.90
12853;DHT22;6495;51.808;7.478;2023-04-07T16:42:58;11.00;99.90
12853;DHT22;6495;51.808;7.478;2023-04-07T16:45:49;11.10;99.90
12853;DHT22;6495;51.808;7.478;2023-04-07T16:48:37;11.10;99.90
12853;DHT22;6495;51.808;7.478;2023-04-07T16:51:26;11.10;99.90
12853;DHT22;6495;51.808;7.478;2023-04-07T16:54:15;11.00;99.90
12853;DHT22;6495;51.808;7.478;2023-04-07T16:57:05;11.10;99.90
12853;DHT22;6495;51.808;7.478;2023-04-07T16:59:54;11.10;99.90
12853;DHT22;6495;51.808;7.478;2023-04-07T17:02:42;11.10;99.90
12853;DHT22;6495;51.808;7.478;2023-04-07T17:05:31;11.10;99.90
12853;DHT22;6495;51.808;7.478;2023-04-07T17:08:19;11.10;99.90
12853;DHT22;6495;51.808;7.478;2023-04-07T17:11:08;11.10;99.90
12853;DHT22;6495;51.808;7.478;2023-04-07T17:18:36;11.10;99.90
12853;DHT22;6495;51.808;7.478;2023-04-07T17:21:25;11.10;99.90
12853;DHT22;6495;51.808;7.478;2023-04-07T17:24:15;11.10;99.90
12853;DHT22;6495;51.808;7.478;2023-04-07T17:27:04;11.10;99.90
12853;DHT22;6495;51.808;7.478;2023-04-07T17:29:53;11.10;99.90
12853;DHT22;6495;51.808;7.478;2023-04-07T17:32:42;11.10;99.90
12853;DHT22;6495;51.808;7.478;2023-04-07T17:35:32;11.10;99.90
12853;DHT22;6495;51.808;7.478;2023-04-07T17:38:21;11.00;99.90
12853;DHT22;6495;51.808;7.478;2023-04-07T17:41:11;11.00;99.90
12853;DHT22;6495;51.808;7.478;2023-04-07T17:44:08;11.00;99.90
12853;DHT22;6495;51.808;7.478;2023-04-07T17:46:57;11.00;99.90
12853;DHT22;6495;51.808;7.478;2023-04-07T17:49:46;11.00;99.90
12853;DHT22;6495;51.808;7.478;2023-04-07T17:52:37;11.00;99.90
12853;DHT22;6495;51.808;7.478;2023-04-07T17:55:26;11.00;99.90
12853;DHT22;6495;51.808;7.478;2023-04-07T17:59:03;11.10;99.90
12853;DHT22;6495;51.808;7.478;2023-04-07T18:01:52;11.00;99.90
12853;DHT22;6495;51.808;7.478;2023-04-07T18:04:42;11.00;99.90
12853;DHT22;6495;51.808;7.478;2023-04-07T18:07:31;11.00;99.90
12853;DHT22;6495;51.808;7.478;2023-04-07T18:10:23;11.00;99.90
12853;DHT22;6495;51.808;7.478;2023-04-07T18:13:12;10.90;99.90
12853;DHT22;6495;51.808;7.478;2023-04-07T18:16:00;10.90;99.90
12853;DHT22;6495;51.808;7.478;2023-04-07T18:18:54;10.90;99.90
12853;DHT22;6495;51.808;7.478;2023-04-07T18:21:43;10.90;99.90
12853;DHT22;6495;51.808;7.478;2023-04-07T18:24:32;10.80;99.90
12853;DHT22;6495;51.808;7.478;2023-04-07T18:27:22;10.80;99.90
12853;DHT22;6495;51.808;7.478;2023-04-07T18:30:12;10.80;99.90
12853;DHT22;6495;51.808;7.478;2023-04-07T18:33:02;10.70;99.90
12853;DHT22;6495;51.808;7.478;2023-04-07T18:35:51;10.70;99.90
12853;DHT22;6495;51.808;7.478;2023-04-07T18:38:40;10.70;99.90
12853;DHT22;6495;51.808;7.478;2023-04-07T18:41:29;10.60;99.90
12853;DHT22;6495;51.808;7.478;2023-04-07T18:44:19;10.60;99.90
12853;DHT22;6495;51.808;7.478;2023-04-07T18:47:08;10.60;99.90
12853;DHT22;6495;51.808;7.478;2023-04-07T18:49:57;10.60;99.90
12853;DHT22;6495;51.808;7.478;2023-04-07T18:52:46;10.60;99.90
12853;DHT22;6495;51.808;7.478;2023-04-07T18:55:35;10.50;99.90
12853;DHT22;6495;51.808;7.478;2023-04-07T18:58:24;10.50;99.90
12853;DHT22;6495;51.808;7.478;2023-04-07T19:01:14;10.40;99.90